createdAt,value
2023-04-23T00:01:51.892Z,13.80
2023-04-23T00:06:54.793Z,13.84
2023-04-23T00:11:58.082Z,13.84
2023-04-23T00:17:01.282Z,13.84
2023-04-23T00:22:04.022Z,13.78
2023-04-23T00:27:06.763Z,13.79
2023-04-23T00:32:15.057Z,13.71
2023-04-23T00:37:17.523Z,13.82
2023-04-23T00:42:21.631Z,13.75
2023-04-23T00:47:25.177Z,13.76
2023-04-23T00:52:29.091Z,13.69
2023-04-23T00:57:32.266Z,13.72
2023-04-23T01:02:36.635Z,13.69
2023-04-23T01:07:39.174Z,13.68
2023-04-23T01:12:41.870Z,13.61
2023-04-23T01:17:44.427Z,13.57
2023-04-23T01:28:07.969Z,13.59
2023-04-23T01:33:10.615Z,13.63
2023-04-23T01:38:14.227Z,13.56
2023-04-23T01:43:16.997Z,13.51
2023-04-23T01:48:19.977Z,13.56
2023-04-23T01:53:22.413Z,13.42
2023-04-23T01:58:25.294Z,13.42
2023-04-23T02:03:28.003Z,13.40
2023-04-23T02:08:31.424Z,13.35
2023-04-23T02:13:33.878Z,13.24
2023-04-23T02:18:36.310Z,13.11
2023-04-23T02:23:38.791Z,13.01
2023-04-23T02:28:42.052Z,12.98
2023-04-23T02:33:44.877Z,12.91
2023-04-23T02:38:49.262Z,12.84
2023-04-23T02:43:52.218Z,12.83
2023-04-23T02:48:56.037Z,12.81
2023-04-23T02:53:59.357Z,12.77
2023-04-23T02:59:01.798Z,12.76
2023-04-23T03:04:04.755Z,12.75
2023-04-23T03:09:07.854Z,12.77
2023-04-23T03:14:11.450Z,12.77
2023-04-23T03:19:14.079Z,12.75
2023-04-23T03:24:17.321Z,12.73
2023-04-23T03:29:20.438Z,12.68
2023-04-23T03:34:24.039Z,12.74
2023-04-23T03:39:26.407Z,12.75
2023-04-23T03:44:31.423Z,12.84
2023-04-23T03:49:34.839Z,12.83
2023-04-23T03:54:37.156Z,12.80
2023-04-23T03:59:39.488Z,12.76
2023-04-23T04:04:46.331Z,12.79
2023-04-23T04:09:49.771Z,12.87
2023-04-23T04:14:52.257Z,12.88
2023-04-23T04:19:55.478Z,12.82
2023-04-23T04:24:58.154Z,12.59
2023-04-23T04:30:02.091Z,12.37
2023-04-23T04:35:05.193Z,11.99
2023-04-23T04:40:08.252Z,11.80
2023-04-23T04:45:10.561Z,11.68
2023-04-23T04:50:12.889Z,11.53
2023-04-23T04:55:15.169Z,11.42
2023-04-23T05:00:17.613Z,11.36
2023-04-23T05:05:20.678Z,11.34
2023-04-23T05:10:26.836Z,11.33
2023-04-23T05:15:29.301Z,11.42
2023-04-23T05:20:31.648Z,11.44
2023-04-23T05:25:34.615Z,11.41
2023-04-23T05:30:37.294Z,11.44
2023-04-23T05:35:40.663Z,11.53
2023-04-23T05:40:43.293Z,11.54
2023-04-23T05:45:46.074Z,11.53
2023-04-23T05:50:49.649Z,11.59
2023-04-23T05:55:52.216Z,11.51
2023-04-23T06:00:57.688Z,11.56
2023-04-23T06:06:01.090Z,11.57
2023-04-23T06:11:03.574Z,11.28
2023-04-23T06:16:06.054Z,11.26
2023-04-23T06:21:08.375Z,11.16
2023-04-23T06:26:10.765Z,11.08
2023-04-23T06:31:13.666Z,10.97
2023-04-23T06:36:16.761Z,11.10
2023-04-23T06:41:20.243Z,11.10
2023-04-23T06:46:23.403Z,10.98
2023-04-23T06:51:26.619Z,11.01
2023-04-23T06:56:29.038Z,11.08
2023-04-23T07:01:31.444Z,11.00
2023-04-23T07:06:34.672Z,10.97
2023-04-23T07:11:37.238Z,11.11
2023-04-23T07:16:39.705Z,11.17
2023-04-23T07:21:42.193Z,11.42
2023-04-23T07:26:45.035Z,11.61
2023-04-23T07:31:48.468Z,11.70
2023-04-23T07:36:52.033Z,11.77
2023-04-23T07:41:54.340Z,11.97
2023-04-23T07:46:56.664Z,11.87
2023-04-23T07:51:59.829Z,11.92
2023-04-23T07:57:02.950Z,11.89
2023-04-23T08:02:05.340Z,11.82
2023-04-23T08:07:07.777Z,11.85
2023-04-23T08:12:11.189Z,12.10
2023-04-23T08:17:14.203Z,12.02
2023-04-23T08:22:17.205Z,12.25
2023-04-23T08:27:20.393Z,12.44
2023-04-23T08:32:22.978Z,12.89
2023-04-23T08:37:30.951Z,13.82
2023-04-23T08:42:33.586Z,15.33
2023-04-23T08:47:36.927Z,15.38
2023-04-23T08:52:39.336Z,16.02
2023-04-23T08:57:44.700Z,15.91
2023-04-23T09:02:47.263Z,16.13
2023-04-23T09:07:49.828Z,16.80
2023-04-23T09:12:52.226Z,17.16
2023-04-23T09:17:54.590Z,17.23
2023-04-23T09:22:59.688Z,17.09
2023-04-23T09:28:02.054Z,16.89
2023-04-23T09:33:04.896Z,17.12
2023-04-23T09:38:07.944Z,17.27
2023-04-23T09:43:10.282Z,17.78
2023-04-23T09:48:14.113Z,17.49
2023-04-23T09:53:16.547Z,17.37
2023-04-23T09:58:19.409Z,17.51
2023-04-23T10:03:23.824Z,17.61
2023-04-23T10:08:26.531Z,16.87
2023-04-23T10:13:28.921Z,16.83
2023-04-23T10:18:33.263Z,17.34
2023-04-23T10:23:35.732Z,17.65
2023-04-23T10:28:38.120Z,17.76
2023-04-23T10:33:55.473Z,17.61
2023-04-23T10:39:04.290Z,17.54
2023-04-23T10:44:07.475Z,17.02
2023-04-23T10:49:10.182Z,17.68
2023-04-23T10:54:13.388Z,17.15
2023-04-23T10:59:16.602Z,17.72
2023-04-23T11:04:19.946Z,18.00
2023-04-23T11:09:22.698Z,17.94
2023-04-23T11:14:25.018Z,17.44
2023-04-23T11:19:27.289Z,16.81
2023-04-23T11:24:29.655Z,16.94
2023-04-23T11:29:32.210Z,16.96
2023-04-23T11:34:35.068Z,17.12
2023-04-23T11:39:37.372Z,18.19
2023-04-23T11:44:39.701Z,18.06
2023-04-23T11:49:54.539Z,17.98
2023-04-23T11:54:57.460Z,18.78
2023-04-23T12:00:00.555Z,19.70
2023-04-23T12:05:03.117Z,18.84
2023-04-23T12:10:06.017Z,18.77
2023-04-23T12:15:09.432Z,18.17
2023-04-23T12:20:13.999Z,17.09
2023-04-23T12:25:17.241Z,16.70
2023-04-23T12:30:20.000Z,17.45
2023-04-23T12:35:25.204Z,17.86
2023-04-23T12:40:29.177Z,17.98
2023-04-23T12:45:36.790Z,18.03
2023-04-23T12:50:40.156Z,18.13
2023-04-23T12:55:45.499Z,18.33
2023-04-23T13:00:48.890Z,18.13
2023-04-23T13:05:51.641Z,18.19
2023-04-23T13:10:54.027Z,18.17
2023-04-23T13:15:56.809Z,18.19
2023-04-23T13:21:00.243Z,18.21
2023-04-23T13:26:03.363Z,18.46
2023-04-23T13:31:06.510Z,18.49
2023-04-23T13:36:09.029Z,18.71
2023-04-23T13:41:11.820Z,18.31
2023-04-23T13:46:14.569Z,18.36
2023-04-23T13:51:33.073Z,18.37
2023-04-23T13:56:37.052Z,18.17
2023-04-23T14:01:39.485Z,18.09
2023-04-23T14:06:42.512Z,18.34
2023-04-23T14:11:45.254Z,18.72
2023-04-23T14:16:47.702Z,18.73
2023-04-23T14:21:50.123Z,18.44
2023-04-23T14:26:52.650Z,18.55
2023-04-23T14:31:55.001Z,19.16
2023-04-23T14:36:58.728Z,18.40
2023-04-23T14:42:01.601Z,18.44
2023-04-23T14:47:06.569Z,18.00
2023-04-23T14:52:09.893Z,18.50
2023-04-23T14:57:13.135Z,18.77
2023-04-23T15:02:15.967Z,18.62
2023-04-23T15:07:18.891Z,18.29
2023-04-23T15:12:21.479Z,18.03
2023-04-23T15:17:24.774Z,17.95
2023-04-23T15:22:27.286Z,17.90
2023-04-23T15:27:30.066Z,18.11
2023-04-23T15:32:32.522Z,18.22
2023-04-23T15:37:35.783Z,18.86
2023-04-23T15:42:40.640Z,18.57
2023-04-23T15:47:43.528Z,18.36
2023-04-23T15:52:48.076Z,18.03
2023-04-23T15:57:51.651Z,17.42
2023-04-23T16:02:54.474Z,17.17
2023-04-23T16:07:58.008Z,16.88
2023-04-23T16:13:00.986Z,16.50
2023-04-23T16:18:04.377Z,16.37
2023-04-23T16:23:07.708Z,16.34
2023-04-23T16:28:10.376Z,16.42
2023-04-23T16:33:13.232Z,16.13
2023-04-23T16:38:16.450Z,16.43
2023-04-23T16:43:18.817Z,16.23
2023-04-23T16:48:21.909Z,15.89
2023-04-23T16:53:24.411Z,15.97
2023-04-23T16:58:26.955Z,15.88
2023-04-23T17:03:33.536Z,15.66
2023-04-23T17:08:38.776Z,15.58
2023-04-23T17:13:44.189Z,15.59
2023-04-23T17:18:46.631Z,15.42
2023-04-23T17:23:59.259Z,15.31
2023-04-23T17:29:02.113Z,15.14
2023-04-23T17:34:04.900Z,15.09
2023-04-23T17:39:07.700Z,15.01
2023-04-23T17:44:10.228Z,14.92
2023-04-23T17:49:12.871Z,14.81
2023-04-23T17:54:15.253Z,14.82
2023-04-23T17:59:17.787Z,14.80
2023-04-23T18:04:20.354Z,14.73
2023-04-23T18:09:23.667Z,14.71
2023-04-23T18:14:26.223Z,14.62
2023-04-23T18:19:30.898Z,14.56
2023-04-23T18:24:37.706Z,14.58
2023-04-23T18:29:40.478Z,14.58
2023-04-23T18:34:43.238Z,14.52
2023-04-23T18:39:45.880Z,14.41
2023-04-23T18:44:49.057Z,14.42
2023-04-23T18:49:52.894Z,14.49
2023-04-23T18:54:55.182Z,14.54
2023-04-23T18:59:57.773Z,13.58
2023-04-23T19:05:00.299Z,12.00
2023-04-23T19:10:03.896Z,10.77
2023-04-23T19:15:07.119Z,10.38
2023-04-23T19:20:11.340Z,10.27
2023-04-23T19:25:14.430Z,10.17
2023-04-23T19:30:17.724Z,10.10
2023-04-23T19:35:21.474Z,10.06
2023-04-23T19:40:24.152Z,10.00
2023-04-23T19:45:29.926Z,10.07
2023-04-23T19:50:32.395Z,10.02
2023-04-23T19:55:35.200Z,10.10
2023-04-23T20:00:41.478Z,10.37
2023-04-23T20:05:46.161Z,10.35
2023-04-23T20:10:49.104Z,10.55
2023-04-23T20:15:53.693Z,10.55
2023-04-23T20:20:57.173Z,10.57
2023-04-23T20:26:00.004Z,10.38
2023-04-23T20:31:03.551Z,10.34
2023-04-23T20:36:06.764Z,10.24
2023-04-23T20:41:10.754Z,10.15
2023-04-23T20:46:13.554Z,10.13
2023-04-23T20:51:16.470Z,10.19
2023-04-23T20:56:19.262Z,10.26
2023-04-23T21:01:21.753Z,10.27
2023-04-23T21:06:25.339Z,10.34
2023-04-23T21:11:28.406Z,10.43
2023-04-23T21:16:30.901Z,10.37
2023-04-23T21:21:33.580Z,10.36
2023-04-23T21:26:35.986Z,10.35
2023-04-23T21:31:38.846Z,10.34
2023-04-23T21:36:44.530Z,10.32
2023-04-23T21:41:47.381Z,10.28
2023-04-23T21:46:50.418Z,10.30
2023-04-23T21:51:54.624Z,10.32
2023-04-23T21:56:57.530Z,10.33
2023-04-23T22:02:00.727Z,10.26
2023-04-23T22:07:04.274Z,10.29
2023-04-23T22:12:08.759Z,10.24
2023-04-23T22:17:11.716Z,10.24
2023-04-23T22:22:14.148Z,10.24
2023-04-23T22:27:16.570Z,10.24
2023-04-23T22:32:19.253Z,10.29
2023-04-23T22:37:22.130Z,10.28
2023-04-23T22:42:25.011Z,10.28
2023-04-23T22:47:27.537Z,10.29
2023-04-23T22:52:29.857Z,10.25
2023-04-23T22:57:32.626Z,10.21
2023-04-23T23:02:35.054Z,10.18
2023-04-23T23:07:37.459Z,10.12
2023-04-23T23:12:40.142Z,10.07
2023-04-23T23:17:43.256Z,9.98
2023-04-23T23:22:46.465Z,9.80
2023-04-23T23:27:49.011Z,9.70
2023-04-23T23:32:51.688Z,9.65
2023-04-23T23:37:54.047Z,9.60
2023-04-23T23:42:56.683Z,9.48
2023-04-23T23:47:59.471Z,9.43
2023-04-23T23:53:01.794Z,9.46
2023-04-23T23:58:05.032Z,9.36
